sensor_id;sensor_type;location;lat;lon;timestamp;P1;durP1;ratioP1;P2;durP2;ratioP2
15228;SDS011;7717;47.792;12.076;2023-04-10T00:00:28;10.80;;;7.73;;
15228;SDS011;7717;47.792;12.076;2023-04-10T00:02:55;11.13;;;7.53;;
15228;SDS011;7717;47.792;12.076;2023-04-10T00:05:22;9.23;;;6.77;;
15228;SDS011;7717;47.792;12.076;2023-04-10T00:07:47;11.50;;;7.97;;
15228;SDS011;7717;47.792;12.076;2023-04-10T00:10:13;10.13;;;7.47;;
15228;SDS011;7717;47.792;12.076;2023-04-10T00:12:38;10.57;;;6.37;;
15228;SDS011;7717;47.792;12.076;2023-04-10T00:15:04;10.27;;;6.50;;
15228;SDS011;7717;47.792;12.076;2023-04-10T00:17:30;11.03;;;7.47;;
15228;SDS011;7717;47.792;12.076;2023-04-10T00:19:55;11.53;;;7.17;;
15228;SDS011;7717;47.792;12.076;2023-04-10T00:22:20;9.10;;;6.90;;
15228;SDS011;7717;47.792;12.076;2023-04-10T00:24:46;11.07;;;7.13;;
15228;SDS011;7717;47.792;12.076;2023-04-10T00:27:11;10.10;;;7.03;;
15228;SDS011;7717;47.792;12.076;2023-04-10T00:29:36;13.17;;;7.57;;
15228;SDS011;7717;47.792;12.076;2023-04-10T00:32:02;11.47;;;7.43;;
15228;SDS011;7717;47.792;12.076;2023-04-10T00:34:28;8.37;;;6.10;;
15228;SDS011;7717;47.792;12.076;2023-04-10T00:36:53;10.63;;;7.63;;
15228;SDS011;7717;47.792;12.076;2023-04-10T00:39:18;10.57;;;7.80;;
15228;SDS011;7717;47.792;12.076;2023-04-10T00:41:44;11.43;;;7.53;;
15228;SDS011;7717;47.792;12.076;2023-04-10T00:44:09;11.20;;;7.97;;
15228;SDS011;7717;47.792;12.076;2023-04-10T00:46:36;11.13;;;7.93;;
15228;SDS011;7717;47.792;12.076;2023-04-10T00:49:02;12.40;;;7.47;;
15228;SDS011;7717;47.792;12.076;2023-04-10T00:51:28;12.13;;;8.20;;
15228;SDS011;7717;47.792;12.076;2023-04-10T00:53:55;15.13;;;8.03;;
15228;SDS011;7717;47.792;12.076;2023-04-10T00:56:20;14.17;;;8.17;;
15228;SDS011;7717;47.792;12.076;2023-04-10T00:58:48;9.97;;;7.43;;
15228;SDS011;7717;47.792;12.076;2023-04-10T01:01:13;8.67;;;7.10;;
15228;SDS011;7717;47.792;12.076;2023-04-10T01:03:38;8.77;;;6.87;;
15228;SDS011;7717;47.792;12.076;2023-04-10T01:06:18;11.70;;;7.10;;
15228;SDS011;7717;47.792;12.076;2023-04-10T01:08:59;10.10;;;6.53;;
15228;SDS011;7717;47.792;12.076;2023-04-10T01:14:22;9.67;;;6.83;;
15228;SDS011;7717;47.792;12.076;2023-04-10T01:17:11;10.00;;;6.80;;
15228;SDS011;7717;47.792;12.076;2023-04-10T01:22:36;11.57;;;7.13;;
15228;SDS011;7717;47.792;12.076;2023-04-10T01:28:04;8.50;;;5.57;;
15228;SDS011;7717;47.792;12.076;2023-04-10T01:30:40;6.47;;;5.50;;
15228;SDS011;7717;47.792;12.076;2023-04-10T01:33:08;10.13;;;6.50;;
15228;SDS011;7717;47.792;12.076;2023-04-10T01:35:37;9.57;;;6.17;;
15228;SDS011;7717;47.792;12.076;2023-04-10T01:38:06;9.70;;;6.13;;
15228;SDS011;7717;47.792;12.076;2023-04-10T01:40:32;10.50;;;6.93;;
15228;SDS011;7717;47.792;12.076;2023-04-10T01:43:02;9.20;;;6.97;;
15228;SDS011;7717;47.792;12.076;2023-04-10T01:45:32;10.47;;;6.87;;
15228;SDS011;7717;47.792;12.076;2023-04-10T01:47:57;8.97;;;6.87;;
15228;SDS011;7717;47.792;12.076;2023-04-10T01:50:23;9.10;;;6.33;;
15228;SDS011;7717;47.792;12.076;2023-04-10T01:52:52;10.27;;;7.03;;
15228;SDS011;7717;47.792;12.076;2023-04-10T01:55:19;9.87;;;6.57;;
15228;SDS011;7717;47.792;12.076;2023-04-10T01:57:45;9.70;;;6.30;;
15228;SDS011;7717;47.792;12.076;2023-04-10T02:00:13;10.80;;;7.17;;
15228;SDS011;7717;47.792;12.076;2023-04-10T02:02:40;8.67;;;6.63;;
15228;SDS011;7717;47.792;12.076;2023-04-10T02:05:06;9.63;;;6.90;;
15228;SDS011;7717;47.792;12.076;2023-04-10T02:10:23;9.10;;;6.83;;
15228;SDS011;7717;47.792;12.076;2023-04-10T02:12:54;9.20;;;7.10;;
15228;SDS011;7717;47.792;12.076;2023-04-10T02:15:25;11.33;;;7.63;;
15228;SDS011;7717;47.792;12.076;2023-04-10T02:17:54;11.07;;;7.03;;
15228;SDS011;7717;47.792;12.076;2023-04-10T02:20:22;9.83;;;6.83;;
15228;SDS011;7717;47.792;12.076;2023-04-10T02:22:49;11.17;;;7.23;;
15228;SDS011;7717;47.792;12.076;2023-04-10T02:25:16;9.63;;;6.67;;
15228;SDS011;7717;47.792;12.076;2023-04-10T02:27:41;9.43;;;6.80;;
15228;SDS011;7717;47.792;12.076;2023-04-10T02:30:07;11.73;;;7.73;;
15228;SDS011;7717;47.792;12.076;2023-04-10T02:32:32;10.63;;;7.00;;
15228;SDS011;7717;47.792;12.076;2023-04-10T02:34:58;10.53;;;7.13;;
15228;SDS011;7717;47.792;12.076;2023-04-10T02:37:24;11.53;;;7.10;;
15228;SDS011;7717;47.792;12.076;2023-04-10T02:39:51;11.40;;;7.50;;
15228;SDS011;7717;47.792;12.076;2023-04-10T02:42:16;9.77;;;6.80;;
15228;SDS011;7717;47.792;12.076;2023-04-10T02:44:42;10.63;;;6.80;;
15228;SDS011;7717;47.792;12.076;2023-04-10T02:47:07;14.07;;;7.23;;
15228;SDS011;7717;47.792;12.076;2023-04-10T02:49:32;12.50;;;7.60;;
15228;SDS011;7717;47.792;12.076;2023-04-10T02:52:01;10.67;;;6.93;;
15228;SDS011;7717;47.792;12.076;2023-04-10T02:54:27;11.07;;;7.33;;
15228;SDS011;7717;47.792;12.076;2023-04-10T02:56:52;10.50;;;6.93;;
15228;SDS011;7717;47.792;12.076;2023-04-10T02:59:18;14.40;;;8.33;;
15228;SDS011;7717;47.792;12.076;2023-04-10T03:01:45;12.03;;;8.10;;
15228;SDS011;7717;47.792;12.076;2023-04-10T03:04:11;11.83;;;7.80;;
15228;SDS011;7717;47.792;12.076;2023-04-10T03:06:37;12.23;;;8.33;;
15228;SDS011;7717;47.792;12.076;2023-04-10T03:09:02;12.20;;;8.03;;
15228;SDS011;7717;47.792;12.076;2023-04-10T03:11:28;11.67;;;7.83;;
15228;SDS011;7717;47.792;12.076;2023-04-10T03:13:54;11.47;;;7.83;;
15228;SDS011;7717;47.792;12.076;2023-04-10T03:16:22;12.50;;;7.73;;
15228;SDS011;7717;47.792;12.076;2023-04-10T03:18:47;11.93;;;7.90;;
15228;SDS011;7717;47.792;12.076;2023-04-10T03:21:13;10.93;;;6.83;;
15228;SDS011;7717;47.792;12.076;2023-04-10T03:23:38;11.73;;;7.57;;
15228;SDS011;7717;47.792;12.076;2023-04-10T03:26:03;19.00;;;11.80;;
15228;SDS011;7717;47.792;12.076;2023-04-10T03:28:29;12.37;;;7.77;;
15228;SDS011;7717;47.792;12.076;2023-04-10T03:30:56;13.43;;;8.67;;
15228;SDS011;7717;47.792;12.076;2023-04-10T03:33:22;10.37;;;7.10;;
15228;SDS011;7717;47.792;12.076;2023-04-10T03:35:47;8.90;;;7.07;;
15228;SDS011;7717;47.792;12.076;2023-04-10T03:38:13;8.53;;;5.90;;
15228;SDS011;7717;47.792;12.076;2023-04-10T03:40:38;10.70;;;7.17;;
15228;SDS011;7717;47.792;12.076;2023-04-10T03:43:04;10.47;;;7.10;;
15228;SDS011;7717;47.792;12.076;2023-04-10T03:45:29;11.53;;;7.00;;
15228;SDS011;7717;47.792;12.076;2023-04-10T03:47:55;12.57;;;8.03;;
15228;SDS011;7717;47.792;12.076;2023-04-10T03:50:20;11.60;;;7.83;;
15228;SDS011;7717;47.792;12.076;2023-04-10T03:52:45;11.77;;;7.57;;
15228;SDS011;7717;47.792;12.076;2023-04-10T03:55:13;11.93;;;7.93;;
15228;SDS011;7717;47.792;12.076;2023-04-10T03:57:43;11.97;;;7.23;;
15228;SDS011;7717;47.792;12.076;2023-04-10T04:00:12;10.53;;;7.00;;
15228;SDS011;7717;47.792;12.076;2023-04-10T04:02:38;12.27;;;7.73;;
15228;SDS011;7717;47.792;12.076;2023-04-10T04:05:03;12.57;;;8.20;;
15228;SDS011;7717;47.792;12.076;2023-04-10T04:07:29;11.57;;;7.83;;
15228;SDS011;7717;47.792;12.076;2023-04-10T04:09:54;12.10;;;7.83;;
15228;SDS011;7717;47.792;12.076;2023-04-10T04:12:20;14.50;;;7.40;;
15228;SDS011;7717;47.792;12.076;2023-04-10T04:14:45;11.13;;;7.30;;
15228;SDS011;7717;47.792;12.076;2023-04-10T04:17:11;12.60;;;7.73;;
15228;SDS011;7717;47.792;12.076;2023-04-10T04:19:36;11.73;;;7.67;;
15228;SDS011;7717;47.792;12.076;2023-04-10T04:22:01;11.43;;;7.73;;
15228;SDS011;7717;47.792;12.076;2023-04-10T04:24:28;10.97;;;6.90;;
15228;SDS011;7717;47.792;12.076;2023-04-10T04:26:53;13.20;;;8.33;;
15228;SDS011;7717;47.792;12.076;2023-04-10T04:29:18;17.13;;;7.67;;
15228;SDS011;7717;47.792;12.076;2023-04-10T04:31:44;10.57;;;7.70;;
15228;SDS011;7717;47.792;12.076;2023-04-10T04:34:09;11.13;;;7.53;;
15228;SDS011;7717;47.792;12.076;2023-04-10T04:36:35;9.30;;;6.90;;
15228;SDS011;7717;47.792;12.076;2023-04-10T04:39:00;10.80;;;7.17;;
15228;SDS011;7717;47.792;12.076;2023-04-10T04:41:25;11.90;;;7.47;;
15228;SDS011;7717;47.792;12.076;2023-04-10T04:43:51;9.60;;;7.03;;
15228;SDS011;7717;47.792;12.076;2023-04-10T04:46:17;10.83;;;7.67;;
15228;SDS011;7717;47.792;12.076;2023-04-10T04:48:43;11.97;;;7.23;;
15228;SDS011;7717;47.792;12.076;2023-04-10T04:51:08;12.70;;;8.70;;
15228;SDS011;7717;47.792;12.076;2023-04-10T04:53:33;11.27;;;7.87;;
15228;SDS011;7717;47.792;12.076;2023-04-10T04:55:59;11.90;;;7.80;;
15228;SDS011;7717;47.792;12.076;2023-04-10T04:58:24;14.30;;;8.80;;
15228;SDS011;7717;47.792;12.076;2023-04-10T05:00:53;14.43;;;8.80;;
15228;SDS011;7717;47.792;12.076;2023-04-10T05:03:19;20.33;;;10.63;;
15228;SDS011;7717;47.792;12.076;2023-04-10T05:05:44;16.33;;;9.73;;
15228;SDS011;7717;47.792;12.076;2023-04-10T05:08:09;27.17;;;13.17;;
15228;SDS011;7717;47.792;12.076;2023-04-10T05:10:35;19.43;;;12.10;;
15228;SDS011;7717;47.792;12.076;2023-04-10T05:13:00;21.67;;;12.70;;
15228;SDS011;7717;47.792;12.076;2023-04-10T05:15:26;18.83;;;11.83;;
15228;SDS011;7717;47.792;12.076;2023-04-10T05:17:51;21.57;;;12.47;;
15228;SDS011;7717;47.792;12.076;2023-04-10T05:20:17;22.23;;;13.67;;
15228;SDS011;7717;47.792;12.076;2023-04-10T05:22:43;20.03;;;12.67;;
15228;SDS011;7717;47.792;12.076;2023-04-10T05:25:08;21.40;;;13.70;;
15228;SDS011;7717;47.792;12.076;2023-04-10T05:27:33;18.03;;;11.33;;
15228;SDS011;7717;47.792;12.076;2023-04-10T05:29:59;19.67;;;13.10;;
15228;SDS011;7717;47.792;12.076;2023-04-10T05:32:24;12.63;;;9.70;;
15228;SDS011;7717;47.792;12.076;2023-04-10T05:34:50;16.87;;;9.50;;
15228;SDS011;7717;47.792;12.076;2023-04-10T05:37:15;12.20;;;8.60;;
15228;SDS011;7717;47.792;12.076;2023-04-10T05:39:40;13.67;;;8.97;;
15228;SDS011;7717;47.792;12.076;2023-04-10T05:42:06;12.97;;;9.20;;
15228;SDS011;7717;47.792;12.076;2023-04-10T05:44:31;15.20;;;9.67;;
15228;SDS011;7717;47.792;12.076;2023-04-10T05:46:57;12.47;;;8.40;;
15228;SDS011;7717;47.792;12.076;2023-04-10T05:49:22;13.80;;;8.93;;
15228;SDS011;7717;47.792;12.076;2023-04-10T05:51:47;12.10;;;7.83;;
15228;SDS011;7717;47.792;12.076;2023-04-10T05:54:17;11.07;;;7.27;;
15228;SDS011;7717;47.792;12.076;2023-04-10T05:56:43;14.70;;;9.83;;
15228;SDS011;7717;47.792;12.076;2023-04-10T05:59:08;12.03;;;8.30;;
15228;SDS011;7717;47.792;12.076;2023-04-10T06:01:33;11.77;;;8.63;;
15228;SDS011;7717;47.792;12.076;2023-04-10T06:03:59;75.40;;;12.83;;
15228;SDS011;7717;47.792;12.076;2023-04-10T06:06:25;10.97;;;7.07;;
15228;SDS011;7717;47.792;12.076;2023-04-10T06:08:51;13.90;;;9.77;;
15228;SDS011;7717;47.792;12.076;2023-04-10T06:11:16;14.13;;;9.23;;
15228;SDS011;7717;47.792;12.076;2023-04-10T06:13:42;10.87;;;7.30;;
15228;SDS011;7717;47.792;12.076;2023-04-10T06:16:07;14.47;;;7.83;;
15228;SDS011;7717;47.792;12.076;2023-04-10T06:18:33;14.37;;;9.63;;
15228;SDS011;7717;47.792;12.076;2023-04-10T06:20:58;12.17;;;9.30;;
15228;SDS011;7717;47.792;12.076;2023-04-10T06:23:26;13.83;;;8.87;;
15228;SDS011;7717;47.792;12.076;2023-04-10T06:25:52;11.43;;;7.87;;
15228;SDS011;7717;47.792;12.076;2023-04-10T06:28:18;9.93;;;7.93;;
15228;SDS011;7717;47.792;12.076;2023-04-10T06:30:44;10.83;;;7.80;;
15228;SDS011;7717;47.792;12.076;2023-04-10T06:33:09;14.73;;;9.80;;
15228;SDS011;7717;47.792;12.076;2023-04-10T06:35:35;10.07;;;5.27;;
15228;SDS011;7717;47.792;12.076;2023-04-10T06:38:01;12.23;;;9.07;;
15228;SDS011;7717;47.792;12.076;2023-04-10T06:40:27;12.73;;;9.50;;
15228;SDS011;7717;47.792;12.076;2023-04-10T06:42:53;10.53;;;6.87;;
15228;SDS011;7717;47.792;12.076;2023-04-10T06:45:19;8.03;;;6.20;;
15228;SDS011;7717;47.792;12.076;2023-04-10T06:47:45;11.90;;;7.90;;
15228;SDS011;7717;47.792;12.076;2023-04-10T06:50:10;7.27;;;5.03;;
15228;SDS011;7717;47.792;12.076;2023-04-10T06:52:36;9.97;;;6.83;;
15228;SDS011;7717;47.792;12.076;2023-04-10T06:55:01;10.30;;;7.50;;
15228;SDS011;7717;47.792;12.076;2023-04-10T06:57:27;9.97;;;6.77;;
15228;SDS011;7717;47.792;12.076;2023-04-10T06:59:53;9.33;;;6.80;;
15228;SDS011;7717;47.792;12.076;2023-04-10T07:02:18;11.20;;;7.73;;
15228;SDS011;7717;47.792;12.076;2023-04-10T07:04:43;7.73;;;5.73;;
15228;SDS011;7717;47.792;12.076;2023-04-10T07:07:09;6.77;;;5.27;;
15228;SDS011;7717;47.792;12.076;2023-04-10T07:09:37;7.70;;;6.13;;
15228;SDS011;7717;47.792;12.076;2023-04-10T07:12:03;11.03;;;6.80;;
15228;SDS011;7717;47.792;12.076;2023-04-10T07:14:31;9.37;;;7.63;;
15228;SDS011;7717;47.792;12.076;2023-04-10T07:16:57;11.93;;;7.77;;
15228;SDS011;7717;47.792;12.076;2023-04-10T07:19:22;10.80;;;7.03;;
15228;SDS011;7717;47.792;12.076;2023-04-10T07:21:47;9.50;;;6.90;;
15228;SDS011;7717;47.792;12.076;2023-04-10T07:24:16;9.53;;;7.30;;
15228;SDS011;7717;47.792;12.076;2023-04-10T07:26:44;7.97;;;6.13;;
15228;SDS011;7717;47.792;12.076;2023-04-10T07:29:10;11.60;;;8.00;;
15228;SDS011;7717;47.792;12.076;2023-04-10T07:31:36;5.60;;;4.10;;
15228;SDS011;7717;47.792;12.076;2023-04-10T07:34:02;9.00;;;6.80;;
15228;SDS011;7717;47.792;12.076;2023-04-10T07:36:28;7.27;;;5.90;;
15228;SDS011;7717;47.792;12.076;2023-04-10T07:38:53;9.87;;;7.03;;
15228;SDS011;7717;47.792;12.076;2023-04-10T07:41:19;7.57;;;5.77;;
15228;SDS011;7717;47.792;12.076;2023-04-10T07:43:46;8.33;;;6.23;;
15228;SDS011;7717;47.792;12.076;2023-04-10T07:46:12;8.63;;;6.33;;
15228;SDS011;7717;47.792;12.076;2023-04-10T07:48:37;9.40;;;7.60;;
15228;SDS011;7717;47.792;12.076;2023-04-10T07:51:02;8.60;;;6.00;;
15228;SDS011;7717;47.792;12.076;2023-04-10T07:53:28;10.33;;;5.53;;
15228;SDS011;7717;47.792;12.076;2023-04-10T07:55:53;6.93;;;4.77;;
15228;SDS011;7717;47.792;12.076;2023-04-10T07:58:20;6.40;;;5.13;;
15228;SDS011;7717;47.792;12.076;2023-04-10T08:00:45;6.63;;;4.07;;
15228;SDS011;7717;47.792;12.076;2023-04-10T08:03:11;5.23;;;4.60;;
15228;SDS011;7717;47.792;12.076;2023-04-10T08:05:37;8.33;;;5.47;;
15228;SDS011;7717;47.792;12.076;2023-04-10T08:08:02;5.23;;;4.30;;
15228;SDS011;7717;47.792;12.076;2023-04-10T08:10:28;7.50;;;5.00;;
15228;SDS011;7717;47.792;12.076;2023-04-10T08:12:53;7.37;;;5.53;;
15228;SDS011;7717;47.792;12.076;2023-04-10T08:15:18;7.53;;;5.93;;
15228;SDS011;7717;47.792;12.076;2023-04-10T08:17:44;5.03;;;4.53;;
15228;SDS011;7717;47.792;12.076;2023-04-10T08:20:10;7.80;;;5.97;;
15228;SDS011;7717;47.792;12.076;2023-04-10T08:22:36;7.23;;;5.70;;
15228;SDS011;7717;47.792;12.076;2023-04-10T08:25:02;7.00;;;4.70;;
15228;SDS011;7717;47.792;12.076;2023-04-10T08:27:27;7.03;;;5.87;;
15228;SDS011;7717;47.792;12.076;2023-04-10T08:29:54;11.50;;;7.10;;
15228;SDS011;7717;47.792;12.076;2023-04-10T08:32:19;6.23;;;5.03;;
15228;SDS011;7717;47.792;12.076;2023-04-10T08:34:45;6.07;;;5.03;;
15228;SDS011;7717;47.792;12.076;2023-04-10T08:37:11;6.33;;;5.03;;
15228;SDS011;7717;47.792;12.076;2023-04-10T08:39:39;9.30;;;6.47;;
15228;SDS011;7717;47.792;12.076;2023-04-10T08:42:05;5.77;;;4.30;;
15228;SDS011;7717;47.792;12.076;2023-04-10T08:44:31;5.37;;;4.53;;
15228;SDS011;7717;47.792;12.076;2023-04-10T08:46:57;5.60;;;4.97;;
15228;SDS011;7717;47.792;12.076;2023-04-10T08:49:23;4.63;;;4.17;;
15228;SDS011;7717;47.792;12.076;2023-04-10T08:52:08;4.80;;;4.20;;
15228;SDS011;7717;47.792;12.076;2023-04-10T08:54:39;5.10;;;4.60;;
15228;SDS011;7717;47.792;12.076;2023-04-10T08:57:07;5.27;;;4.77;;
15228;SDS011;7717;47.792;12.076;2023-04-10T08:59:37;5.73;;;4.50;;
15228;SDS011;7717;47.792;12.076;2023-04-10T09:02:03;5.63;;;5.13;;
15228;SDS011;7717;47.792;12.076;2023-04-10T09:04:30;5.10;;;4.60;;
15228;SDS011;7717;47.792;12.076;2023-04-10T09:06:56;4.90;;;4.10;;
15228;SDS011;7717;47.792;12.076;2023-04-10T09:09:21;5.20;;;4.27;;
15228;SDS011;7717;47.792;12.076;2023-04-10T09:14:28;5.27;;;4.00;;
15228;SDS011;7717;47.792;12.076;2023-04-10T09:17:15;5.77;;;4.13;;
15228;SDS011;7717;47.792;12.076;2023-04-10T09:19:46;8.97;;;5.80;;
15228;SDS011;7717;47.792;12.076;2023-04-10T09:22:12;8.63;;;5.73;;
15228;SDS011;7717;47.792;12.076;2023-04-10T09:24:39;5.67;;;4.80;;
15228;SDS011;7717;47.792;12.076;2023-04-10T09:27:06;4.80;;;4.40;;
15228;SDS011;7717;47.792;12.076;2023-04-10T09:29:42;4.90;;;4.50;;
15228;SDS011;7717;47.792;12.076;2023-04-10T09:32:09;5.17;;;4.67;;
15228;SDS011;7717;47.792;12.076;2023-04-10T09:34:51;5.67;;;5.20;;
15228;SDS011;7717;47.792;12.076;2023-04-10T09:37:23;5.40;;;4.90;;
15228;SDS011;7717;47.792;12.076;2023-04-10T09:39:55;5.50;;;4.93;;
15228;SDS011;7717;47.792;12.076;2023-04-10T09:42:29;5.00;;;4.60;;
15228;SDS011;7717;47.792;12.076;2023-04-10T09:44:56;5.07;;;4.23;;
15228;SDS011;7717;47.792;12.076;2023-04-10T09:47:22;4.97;;;4.57;;
15228;SDS011;7717;47.792;12.076;2023-04-10T09:49:48;5.00;;;4.60;;
15228;SDS011;7717;47.792;12.076;2023-04-10T09:52:18;5.20;;;4.80;;
15228;SDS011;7717;47.792;12.076;2023-04-10T09:54:45;5.27;;;4.80;;
15228;SDS011;7717;47.792;12.076;2023-04-10T09:57:12;5.20;;;4.70;;
15228;SDS011;7717;47.792;12.076;2023-04-10T09:59:43;5.70;;;4.57;;
15228;SDS011;7717;47.792;12.076;2023-04-10T10:02:13;5.07;;;4.63;;
15228;SDS011;7717;47.792;12.076;2023-04-10T10:04:40;4.90;;;4.50;;
15228;SDS011;7717;47.792;12.076;2023-04-10T10:07:08;5.10;;;4.70;;
15228;SDS011;7717;47.792;12.076;2023-04-10T10:09:33;4.20;;;3.80;;
15228;SDS011;7717;47.792;12.076;2023-04-10T10:12:01;4.70;;;4.33;;
15228;SDS011;7717;47.792;12.076;2023-04-10T10:14:28;4.20;;;3.87;;
15228;SDS011;7717;47.792;12.076;2023-04-10T10:16:55;4.10;;;3.70;;
15228;SDS011;7717;47.792;12.076;2023-04-10T10:19:26;4.23;;;3.93;;
15228;SDS011;7717;47.792;12.076;2023-04-10T10:22:03;4.37;;;3.97;;
15228;SDS011;7717;47.792;12.076;2023-04-10T10:24:30;4.20;;;3.80;;
15228;SDS011;7717;47.792;12.076;2023-04-10T10:26:57;4.20;;;3.80;;
15228;SDS011;7717;47.792;12.076;2023-04-10T10:29:25;4.23;;;3.00;;
15228;SDS011;7717;47.792;12.076;2023-04-10T10:31:57;4.10;;;3.80;;
15228;SDS011;7717;47.792;12.076;2023-04-10T10:34:26;3.87;;;3.17;;
15228;SDS011;7717;47.792;12.076;2023-04-10T10:36:52;4.20;;;3.80;;
15228;SDS011;7717;47.792;12.076;2023-04-10T10:39:24;3.87;;;3.57;;
15228;SDS011;7717;47.792;12.076;2023-04-10T10:47:29;3.53;;;3.23;;
15228;SDS011;7717;47.792;12.076;2023-04-10T10:49:57;4.00;;;3.70;;
15228;SDS011;7717;47.792;12.076;2023-04-10T10:52:42;3.10;;;2.90;;
15228;SDS011;7717;47.792;12.076;2023-04-10T10:57:46;4.10;;;3.80;;
15228;SDS011;7717;47.792;12.076;2023-04-10T11:00:13;4.03;;;3.73;;
15228;SDS011;7717;47.792;12.076;2023-04-10T11:02:39;4.00;;;3.70;;
15228;SDS011;7717;47.792;12.076;2023-04-10T11:05:05;5.03;;;4.53;;
15228;SDS011;7717;47.792;12.076;2023-04-10T11:13:27;4.63;;;4.23;;
15228;SDS011;7717;47.792;12.076;2023-04-10T11:15:53;4.03;;;3.73;;
15228;SDS011;7717;47.792;12.076;2023-04-10T11:19:04;4.03;;;3.73;;
15228;SDS011;7717;47.792;12.076;2023-04-10T11:23:37;4.10;;;3.80;;
15228;SDS011;7717;47.792;12.076;2023-04-10T11:28:59;3.80;;;3.50;;
15228;SDS011;7717;47.792;12.076;2023-04-10T11:31:25;3.73;;;3.43;;
15228;SDS011;7717;47.792;12.076;2023-04-10T11:36:30;4.40;;;4.00;;
15228;SDS011;7717;47.792;12.076;2023-04-10T11:41:41;5.50;;;4.90;;
15228;SDS011;7717;47.792;12.076;2023-04-10T11:44:09;6.03;;;5.20;;
15228;SDS011;7717;47.792;12.076;2023-04-10T11:46:39;4.90;;;4.50;;
15228;SDS011;7717;47.792;12.076;2023-04-10T11:49:07;4.30;;;3.90;;
15228;SDS011;7717;47.792;12.076;2023-04-10T11:51:37;3.97;;;3.67;;
15228;SDS011;7717;47.792;12.076;2023-04-10T11:56:33;4.23;;;3.93;;
15228;SDS011;7717;47.792;12.076;2023-04-10T11:58:59;4.10;;;3.80;;
15228;SDS011;7717;47.792;12.076;2023-04-10T12:01:26;3.80;;;3.50;;
15228;SDS011;7717;47.792;12.076;2023-04-10T12:03:52;3.93;;;3.63;;
15228;SDS011;7717;47.792;12.076;2023-04-10T12:06:18;4.13;;;3.77;;
15228;SDS011;7717;47.792;12.076;2023-04-10T12:08:45;3.70;;;3.40;;
15228;SDS011;7717;47.792;12.076;2023-04-10T12:11:13;3.92;;;3.63;;
15228;SDS011;7717;47.792;12.076;2023-04-10T12:13:41;3.63;;;3.42;;
15228;SDS011;7717;47.792;12.076;2023-04-10T12:16:07;4.38;;;4.03;;
15228;SDS011;7717;47.792;12.076;2023-04-10T12:18:33;3.83;;;3.53;;
15228;SDS011;7717;47.792;12.076;2023-04-10T12:21:00;3.47;;;3.17;;
15228;SDS011;7717;47.792;12.076;2023-04-10T12:23:26;4.07;;;3.75;;
15228;SDS011;7717;47.792;12.076;2023-04-10T12:26:04;3.60;;;3.30;;
15228;SDS011;7717;47.792;12.076;2023-04-10T12:28:41;3.42;;;3.03;;
15228;SDS011;7717;47.792;12.076;2023-04-10T12:31:14;4.25;;;3.95;;
15228;SDS011;7717;47.792;12.076;2023-04-10T12:33:42;3.88;;;3.58;;
15228;SDS011;7717;47.792;12.076;2023-04-10T12:36:20;3.75;;;3.45;;
15228;SDS011;7717;47.792;12.076;2023-04-10T12:38:46;3.77;;;3.47;;
15228;SDS011;7717;47.792;12.076;2023-04-10T12:41:11;2.72;;;2.53;;
15228;SDS011;7717;47.792;12.076;2023-04-10T12:46:04;3.22;;;3.03;;
15228;SDS011;7717;47.792;12.076;2023-04-10T12:48:30;3.88;;;3.58;;
15228;SDS011;7717;47.792;12.076;2023-04-10T12:50:56;3.60;;;3.30;;
15228;SDS011;7717;47.792;12.076;2023-04-10T12:53:22;3.83;;;3.53;;
15228;SDS011;7717;47.792;12.076;2023-04-10T12:55:58;4.32;;;3.05;;
15228;SDS011;7717;47.792;12.076;2023-04-10T12:58:33;3.33;;;3.03;;
15228;SDS011;7717;47.792;12.076;2023-04-10T13:01:01;3.67;;;3.38;;
15228;SDS011;7717;47.792;12.076;2023-04-10T13:03:28;3.05;;;2.85;;
15228;SDS011;7717;47.792;12.076;2023-04-10T13:05:53;3.13;;;2.92;;
15228;SDS011;7717;47.792;12.076;2023-04-10T13:08:20;3.63;;;3.33;;
15228;SDS011;7717;47.792;12.076;2023-04-10T13:10:46;3.47;;;3.28;;
15228;SDS011;7717;47.792;12.076;2023-04-10T13:13:13;3.38;;;3.15;;
15228;SDS011;7717;47.792;12.076;2023-04-10T13:15:39;3.17;;;2.97;;
15228;SDS011;7717;47.792;12.076;2023-04-10T13:18:05;3.35;;;2.95;;
15228;SDS011;7717;47.792;12.076;2023-04-10T13:20:31;3.80;;;3.50;;
15228;SDS011;7717;47.792;12.076;2023-04-10T13:22:57;3.30;;;3.10;;
15228;SDS011;7717;47.792;12.076;2023-04-10T13:25:23;2.70;;;2.50;;
15228;SDS011;7717;47.792;12.076;2023-04-10T13:27:48;3.00;;;2.80;;
15228;SDS011;7717;47.792;12.076;2023-04-10T13:30:14;3.13;;;2.88;;
15228;SDS011;7717;47.792;12.076;2023-04-10T13:32:39;3.30;;;3.10;;
15228;SDS011;7717;47.792;12.076;2023-04-10T13:35:05;3.50;;;3.30;;
15228;SDS011;7717;47.792;12.076;2023-04-10T13:37:30;3.08;;;2.88;;
15228;SDS011;7717;47.792;12.076;2023-04-10T13:39:56;2.83;;;2.63;;
15228;SDS011;7717;47.792;12.076;2023-04-10T13:42:21;3.45;;;3.13;;
15228;SDS011;7717;47.792;12.076;2023-04-10T13:44:46;3.20;;;2.95;;
15228;SDS011;7717;47.792;12.076;2023-04-10T13:47:12;2.85;;;2.65;;
15228;SDS011;7717;47.792;12.076;2023-04-10T13:49:38;2.08;;;1.92;;
15228;SDS011;7717;47.792;12.076;2023-04-10T13:52:03;3.25;;;2.95;;
15228;SDS011;7717;47.792;12.076;2023-04-10T13:54:28;2.92;;;2.72;;
15228;SDS011;7717;47.792;12.076;2023-04-10T13:56:54;3.10;;;2.90;;
15228;SDS011;7717;47.792;12.076;2023-04-10T13:59:20;3.17;;;2.92;;
15228;SDS011;7717;47.792;12.076;2023-04-10T14:01:45;3.20;;;3.00;;
15228;SDS011;7717;47.792;12.076;2023-04-10T14:04:11;3.13;;;2.90;;
15228;SDS011;7717;47.792;12.076;2023-04-10T14:06:37;3.03;;;2.83;;
15228;SDS011;7717;47.792;12.076;2023-04-10T14:09:02;2.92;;;2.72;;
15228;SDS011;7717;47.792;12.076;2023-04-10T14:11:28;2.80;;;2.60;;
15228;SDS011;7717;47.792;12.076;2023-04-10T14:13:53;2.42;;;2.30;;
15228;SDS011;7717;47.792;12.076;2023-04-10T14:16:19;2.90;;;2.70;;
15228;SDS011;7717;47.792;12.076;2023-04-10T14:18:44;2.80;;;2.60;;
15228;SDS011;7717;47.792;12.076;2023-04-10T14:21:09;3.33;;;3.10;;
15228;SDS011;7717;47.792;12.076;2023-04-10T14:23:35;2.73;;;2.53;;
15228;SDS011;7717;47.792;12.076;2023-04-10T14:26:00;2.80;;;2.60;;
15228;SDS011;7717;47.792;12.076;2023-04-10T14:28:25;3.20;;;2.90;;
15228;SDS011;7717;47.792;12.076;2023-04-10T14:30:51;3.17;;;2.93;;
15228;SDS011;7717;47.792;12.076;2023-04-10T14:33:17;2.88;;;2.67;;
15228;SDS011;7717;47.792;12.076;2023-04-10T14:35:43;3.42;;;3.13;;
15228;SDS011;7717;47.792;12.076;2023-04-10T14:38:09;2.53;;;2.33;;
15228;SDS011;7717;47.792;12.076;2023-04-10T14:40:35;2.65;;;2.45;;
15228;SDS011;7717;47.792;12.076;2023-04-10T14:43:01;2.83;;;2.63;;
15228;SDS011;7717;47.792;12.076;2023-04-10T14:45:26;2.72;;;2.53;;
15228;SDS011;7717;47.792;12.076;2023-04-10T14:47:55;3.00;;;2.80;;
15228;SDS011;7717;47.792;12.076;2023-04-10T14:50:20;3.30;;;3.00;;
15228;SDS011;7717;47.792;12.076;2023-04-10T14:52:46;2.53;;;2.33;;
15228;SDS011;7717;47.792;12.076;2023-04-10T14:55:11;2.87;;;2.67;;
15228;SDS011;7717;47.792;12.076;2023-04-10T14:57:36;2.83;;;2.63;;
15228;SDS011;7717;47.792;12.076;2023-04-10T15:00:02;3.23;;;2.97;;
15228;SDS011;7717;47.792;12.076;2023-04-10T15:02:28;3.00;;;2.80;;
15228;SDS011;7717;47.792;12.076;2023-04-10T15:04:54;2.57;;;2.37;;
15228;SDS011;7717;47.792;12.076;2023-04-10T15:07:20;2.77;;;2.57;;
15228;SDS011;7717;47.792;12.076;2023-04-10T15:09:46;3.27;;;2.63;;
15228;SDS011;7717;47.792;12.076;2023-04-10T15:12:11;2.77;;;2.57;;
15228;SDS011;7717;47.792;12.076;2023-04-10T15:14:37;3.17;;;2.90;;
15228;SDS011;7717;47.792;12.076;2023-04-10T15:17:02;2.93;;;2.73;;
15228;SDS011;7717;47.792;12.076;2023-04-10T15:19:28;2.50;;;2.30;;
15228;SDS011;7717;47.792;12.076;2023-04-10T15:21:53;3.27;;;2.97;;
15228;SDS011;7717;47.792;12.076;2023-04-10T15:24:19;3.30;;;3.00;;